Ingalls Field

About
Name: Ingalls Field
Identifier:  HSP/KHSP
Local Time:  23. Aug 01:15 EDT
Location
Hot Springs
  United States

Flights per Day
0 flights
Distance: 248km (154mi)
Punctuality
0% (0 flights per day delayed)
Delay Average: 25 minutes
Current Weather
 19 C (Humidity: 100%)
  8kt (14km/h / 9mph) from 250°
  Overcast at 8,000 feet (2,438 meter)
  16km (10 mi.)
 METAR KHSP 230433Z AUTO 25008KT 10SM OVC080 19/19 A3015 RMK AO2

Current Flights

Departures
Number Departure To Airline
Arrivals
Number Arrival From Airline

Current Delays

Departures
N/A
Arrivals
N/A

Destinations

Top Destinations
Airport Flights
per week
Seats
per week
  Lynchburg (LYH) 0 - 0 0
  Allentown (ABE) 0 - 0 0
  Raleigh-Durham (RDU) 0 - 0 0
  Cincinnati (LUK) 0 - 0 0
  Sarasota (SRQ) 0 - 0 0
  Columbia (CAE) 0 - 0 0
  Clarksburg (CKB) 0 - 0 0
  Smyrna (MQY) 0 - 0 0
  Abingdon (VJI) 0 - 0 0
  Pittsburgh (AGC) 0 - 0 0
  Columbus (CMH) 0 - 0 0

Airlines & Planes

Top Airlines
Airline Flights
per Day
Seats
per Day
  Novair 0 -
  Nolinor Aviation 0 -
Gama Aviation 0 -
  National Airlines 0 -
Jet Charter Inc ( Franklin Lakes Nj ) 0 -
NetJets 0 -
Top Plane Types
Model Flights Seats
Beech B300 Super King Air 350 0.1/day - 0
Cessna C172 0.1/day - 0
Beech 58 0.1/day - 0
Cessna C68A 0.0/day - 0
Pilatus PC-12 0.0/day - 0